Flight Track Log - Related Links

Times and Time Zones

All times are in EDT time to prevent confusion due to time zone crossing. See the N213SR flight status page for this flight to view local times or setup timezone preferences in your user account.

Time Position Orientation Groundspeed Altitude Reporting Facility
EDT Latitude Longitude Course Direction KTS MPH feet Rate Location/Type
Sat 04:03:36 PM 27.1167 -82.4667 20° North 120 138 1,800  Level Tampa TRACON
Sat 04:04:25 PM 27.1333 -82.4500 42° Northeast 132 152 2,700 1,046 Climbing Tampa TRACON
Sat 04:05:25 PM 27.1667 -82.4333 24° Northeast 134 154 3,700 857 Climbing Tampa TRACON
Sat 04:06:31 PM 27.2000 -82.4000 42° Northeast 147 169 4,500 619 Climbing Tampa TRACON
Sat 04:07:31 PM 27.2500 -82.3833 17° North 154 177 5,000 300 Climbing Tampa TRACON
Sat 04:08:31 PM 27.2833 -82.3667 24° Northeast 167 192 5,100 50 Climbing Tampa TRACON
Sat 04:09:00 PM 27.3025 -82.3223 20° North  Level FlightAware Approximate
Sat 04:09:31 PM 27.3333 -82.3500 16° North 168 193 5,100  Level Tampa TRACON
Sat 04:10:31 PM 27.3833 -82.3333 16° North 168 193 5,000 -50 Descending Tampa TRACON
Sat 04:11:31 PM 27.4167 -82.3167 24° Northeast 168 193 5,000 50 Level Tampa TRACON
Sat 04:12:31 PM 27.4667 -82.3000 16° North 164 189 5,100  Climbing Tampa TRACON
Sat 04:13:31 PM 27.5167 -82.2833 16° North 165 190 5,000 -50 Descending Tampa TRACON
Sat 04:14:32 PM 27.5500 -82.2667 24° Northeast 164 189 5,000  Level Tampa TRACON
Sat 04:15:26 PM 27.5833 -82.2500 24° Northeast 165 190 5,000  Level Tampa TRACON
Sat 04:16:26 PM 27.6333 -82.2333 16° North 156 180 5,000  Level Tampa TRACON
Sat 04:17:38 PM 27.6833 -82.2333 360° North 160 184 5,000 45 Level Tampa TRACON
Sat 04:18:38 PM 27.7333 -82.2333 360° North 156 180 5,100 56 Climbing Tampa TRACON
Sat 04:19:26 PM 27.7667 -82.2333 360° North 155 178 5,100 389 Level Tampa TRACON
Sat 04:20:26 PM 27.8000 -82.2333 360° North 149 171 5,800 700 Climbing Tampa TRACON
Sat 04:21:26 PM 27.8500 -82.2333 360° North 143 165 6,500 650 Climbing Tampa TRACON
Sat 04:22:26 PM 27.8833 -82.2333 360° North 141 162 7,100 619 Climbing Tampa TRACON
Sat 04:23:32 PM 27.9333 -82.2333 360° North 142 163 7,800 667 Climbing Tampa TRACON
Sat 04:24:32 PM 27.9667 -82.2333 360° North 139 160 8,500 684 Climbing Tampa TRACON
Sat 04:25:26 PM 28.0000 -82.2333 360° North 140 161 9,100 632 Climbing Tampa TRACON
Sat 04:26:26 PM 28.0333 -82.2333 360° North 138 159 9,700 526 Climbing Tampa TRACON
Sat 04:27:20 PM 28.0667 -82.2333 360° North 137 158 10,100 211 Climbing Tampa TRACON
Sat 04:28:20 PM 28.1167 -82.2333 360° North 148 170 10,100  Level Tampa TRACON
Sat 04:29:20 PM 28.1500 -82.2333 360° North 148 170 10,100  Level Tampa TRACON
Sat 04:30:26 PM 28.2000 -82.2333 360° North 150 173 10,100  Level Tampa TRACON
Sat 04:31:27 PM 28.2500 -82.2333 360° North 152 175 10,100  Level Tampa TRACON
Sat 04:32:27 PM 28.2833 -82.2333 360° North 152 175 10,100  Level Tampa TRACON
Sat 04:33:27 PM 28.3333 -82.2333 360° North 154 177 10,100  Level Tampa TRACON
Sat 04:34:27 PM 28.3667 -82.2333 360° North 153 176 10,100  Level Tampa TRACON
Sat 04:35:27 PM 28.4167 -82.2333 360° North 157 181 10,100  Level Tampa TRACON
Sat 04:36:33 PM 28.4667 -82.2333 360° North 157 181 10,100 29 Level Tampa TRACON
Sat 04:38:53 PM 28.5656 -82.2283 North 159 183 10,200 31 Climbing Jacksonville Center
Sat 04:39:48 PM 28.6072 -82.2281 360° North 158 182 10,200  Level Jacksonville Center
Sat 04:40:48 PM 28.6511 -82.2303 357° North 157 181 10,200  Level Jacksonville Center
Sat 04:41:49 PM 28.6969 -82.2297 North 157 181 10,200  Level Jacksonville Center
Sat 04:42:50 PM 28.7408 -82.2294 360° North 159 183 10,200 -50 Level Jacksonville Center
Sat 04:43:50 PM 28.7847 -82.2244 North 159 183 10,100 -55 Descending Jacksonville Center
Sat 04:44:39 PM 28.8181 -82.2053 27° Northeast 172 198 10,100  Level Jacksonville Center
Sat 04:45:34 PM 28.8533 -82.1886 22° Northeast 166 191 10,100  Level Jacksonville Center
Sat 04:46:34 PM 28.8950 -82.1597 31° Northeast 171 197 10,100  Level Jacksonville Center
Sat 04:47:41 PM 28.9386 -82.1239 36° Northeast 171 197 10,100  Level Jacksonville Center
Sat 04:48:42 PM 28.9758 -82.0950 34° Northeast 167 192 10,100  Level Jacksonville Center
Sat 04:49:36 PM 29.0156 -82.0686 30° Northeast 167 192 10,100  Level Jacksonville Center
Sat 04:50:43 PM 29.0569 -82.0397 31° Northeast 168 193 10,100  Level Jacksonville Center
Sat 04:51:44 PM 29.1028 -82.0133 27° Northeast 164 189 10,100  Level Jacksonville Center
Sat 04:52:44 PM 29.1403 -81.9892 29° Northeast 165 190 10,100  Level Jacksonville Center
Sat 04:53:39 PM 29.1775 -81.9628 32° Northeast 166 191 10,100  Level Jacksonville Center
Sat 04:54:40 PM 29.2169 -81.9386 28° Northeast 166 191 10,100  Level Jacksonville Center
Sat 04:55:40 PM 29.2608 -81.9239 16° North 161 185 10,100  Level Jacksonville Center
Sat 04:56:35 PM 29.3003 -81.9067 21° North 162 186 10,100  Level Jacksonville Center
Sat 04:57:36 PM 29.3439 -81.8919 16° North 161 185 10,100 -189 Level Jacksonville Center
Sat 04:58:42 PM 29.3897 -81.8772 16° North 165 190 9,700 -472 Descending Jacksonville Center
Sat 04:59:43 PM 29.4439 -81.8553 19° North 181 208 9,100 -541 Descending Jacksonville Center
Sat 05:00:44 PM 29.4917 -81.8381 17° North 182 209 8,600 -522 Descending Jacksonville Center
Sat 05:01:38 PM 29.5333 -81.8233 17° North 180 207 8,100 -522 Descending Jacksonville Center
Sat 05:02:39 PM 29.5833 -81.8036 19° North 187 215 7,600 -492 Descending Jacksonville Center
Sat 05:03:40 PM 29.6333 -81.7839 19° North 187 215 7,100 -545 Descending Jacksonville Center
Sat 05:04:40 PM 29.6833 -81.7642 19° North 190 219 6,500 -470 Descending Jacksonville Center
Sat 05:05:35 PM 29.7289 -81.7469 18° North 191 220 6,200 -188 Descending Jacksonville Center
Sat 05:06:48 PM 29.7853 -81.7272 17° North 174 200 6,100 -43 Descending Jacksonville Center
Sat 05:07:54 PM 29.8331 -81.7075 20° North 167 192 6,100  Level Jacksonville Center
Sat 05:08:37 PM 29.8642 -81.6950 19° North 166 191 6,100  Level Jacksonville Center
Sat 05:09:50 PM 29.9225 -81.6750 17° North 172 198 6,100  Level Jacksonville Center
Sat 05:10:38 PM 29.9578 -81.6628 17° North 160 184 6,100  Level Jacksonville Center
Sat 05:11:39 PM 29.9953 -81.6383 29° Northeast 150 173 6,100 -344 Level Jacksonville Center
Sat 05:12:40 PM 30.0200 -81.6019 52° Northeast 143 165 5,400 -672 Descending Jacksonville Center
Sat 05:13:53 PM 30.0486 -81.5631 50° Northeast 134 154 4,600 -703 Descending Jacksonville Center
Sat 05:14:48 PM 30.0672 -81.5342 53° Northeast 124 143 3,900 -724 Descending Jacksonville Center
Sat 05:15:49 PM 30.0836 -81.5028 59° Northeast 106 122 3,200 -397 Descending Jacksonville Center
Sat 05:16:49 PM 30.1022 -81.4783 49° Northeast 102 117 3,100 -298 Descending Jacksonville Center
Sat 05:17:50 PM 30.1228 -81.4517 48° Northeast 111 128 2,600 -492 Descending Jacksonville Center
Sat 05:18:51 PM 30.1433 -81.4250 48° Northeast 112 129 2,100 -295 Descending Jacksonville Center
Sat 05:19:52 PM 30.1597 -81.4008 52° Northeast 95 109 2,000  Descending Jacksonville Center
Sat 05:20:53 PM 30.1844 -81.3836 31° Northeast 121 139 2,100 52 Climbing Jacksonville Center
Sat 05:21:48 PM 30.2203 -81.3972 342° North 151 174 2,100 -52 Level Jacksonville Center
Sat 05:22:48 PM 30.2539 -81.4186 331° Northwest 146 168 2,000 -328 Descending Jacksonville Center
Sat 05:23:56 PM 30.2856 -81.4542 316° Northwest 142 163 1,400 -590 Descending Jacksonville Center
Sat 05:24:50 PM 30.3067 -81.4850 308° West 141 162 800 -417 Descending Jacksonville Center
Sat 05:25:51 PM 30.3133 -81.5161 284° West 92 106 600 -197 Descending Jacksonville Center
Sat 05:27:00 PM 30.3333 -81.5000 North  Level FlightAware Approximate
Sat 05:34:00 PM 30.3363 -81.5144 North  Level Estimated

Login

Don't have an account? Register now (free) for customized features, flight alerts, and more!